createdAt,value
2018-08-22T00:00:56.250Z,18.27
2018-08-22T00:01:56.292Z,18.27
2018-08-22T00:02:56.331Z,18.30
2018-08-22T00:03:56.370Z,18.27
2018-08-22T00:04:56.411Z,18.26
2018-08-22T00:05:56.451Z,18.29
2018-08-22T00:06:56.491Z,18.32
2018-08-22T00:07:56.547Z,18.33
2018-08-22T00:08:56.572Z,18.30
2018-08-22T00:09:56.615Z,18.45
2018-08-22T00:10:56.658Z,18.35
2018-08-22T00:11:56.693Z,18.39
2018-08-22T00:12:56.729Z,18.42
2018-08-22T00:13:56.769Z,18.37
2018-08-22T00:14:56.809Z,18.47
2018-08-22T00:15:56.850Z,18.42
2018-08-22T00:16:56.888Z,18.47
2018-08-22T00:17:56.936Z,18.36
2018-08-22T00:18:56.969Z,18.37
2018-08-22T00:19:57.009Z,18.37
2018-08-22T00:20:57.046Z,18.42
2018-08-22T00:21:57.089Z,18.44
2018-08-22T00:22:57.127Z,18.36
2018-08-22T00:23:57.180Z,18.35
2018-08-22T00:24:57.213Z,18.35
2018-08-22T00:25:57.247Z,18.35
2018-08-22T00:26:57.302Z,18.39
2018-08-22T00:27:57.327Z,18.39
2018-08-22T00:28:57.366Z,18.39
2018-08-22T00:29:57.404Z,18.32
2018-08-22T00:30:57.444Z,18.36
2018-08-22T00:31:57.485Z,18.32
2018-08-22T00:32:57.525Z,18.39
2018-08-22T00:33:57.564Z,18.32
2018-08-22T00:34:57.604Z,18.35
2018-08-22T00:35:57.644Z,18.27
2018-08-22T00:36:57.684Z,18.41
2018-08-22T00:37:57.722Z,18.39
2018-08-22T00:38:57.769Z,18.35
2018-08-22T00:39:57.803Z,18.33
2018-08-22T00:40:57.843Z,18.30
2018-08-22T00:41:57.884Z,18.35
2018-08-22T00:42:57.927Z,18.37
2018-08-22T00:43:57.962Z,18.26
2018-08-22T00:44:58.004Z,18.32
2018-08-22T00:45:58.042Z,18.29
2018-08-22T00:46:58.082Z,18.30
2018-08-22T00:47:58.122Z,18.27
2018-08-22T00:48:58.161Z,18.25
2018-08-22T00:49:58.203Z,18.18
2018-08-22T00:50:58.242Z,18.25
2018-08-22T00:51:58.283Z,18.25
2018-08-22T00:52:58.321Z,18.32
2018-08-22T00:53:58.363Z,18.33
2018-08-22T00:54:58.403Z,18.32
2018-08-22T00:55:58.452Z,18.36
2018-08-22T00:56:58.482Z,18.29
2018-08-22T00:57:58.521Z,18.30
2018-08-22T00:58:58.563Z,18.36
2018-08-22T00:59:58.611Z,18.35
2018-08-22T01:00:58.641Z,18.35
2018-08-22T01:01:58.680Z,18.32
2018-08-22T01:02:58.721Z,18.33
2018-08-22T01:03:58.769Z,18.30
2018-08-22T01:04:58.800Z,18.29
2018-08-22T01:05:58.841Z,18.29
2018-08-22T01:06:58.881Z,18.18
2018-08-22T01:07:58.919Z,18.21
2018-08-22T01:08:58.960Z,18.15
2018-08-22T01:09:58.998Z,18.29
2018-08-22T01:10:59.039Z,18.21
2018-08-22T01:11:59.079Z,18.26
2018-08-22T01:12:59.118Z,18.21
2018-08-22T01:13:59.161Z,18.23
2018-08-22T01:14:59.199Z,18.17
2018-08-22T01:15:59.238Z,18.18
2018-08-22T01:16:59.296Z,18.15
2018-08-22T01:17:59.318Z,18.18
2018-08-22T01:18:59.368Z,18.15
2018-08-22T01:19:59.399Z,18.23
2018-08-22T01:20:59.440Z,18.15
2018-08-22T01:21:59.477Z,18.12
2018-08-22T01:22:59.521Z,18.20
2018-08-22T01:23:59.567Z,18.21
2018-08-22T01:24:59.596Z,18.15
2018-08-22T01:25:59.669Z,18.23
2018-08-22T01:26:59.676Z,18.25
2018-08-22T01:27:59.719Z,18.23
2018-08-22T01:28:59.757Z,18.29
2018-08-22T01:29:59.797Z,18.23
2018-08-22T01:30:59.837Z,18.27
2018-08-22T01:31:59.875Z,18.25
2018-08-22T01:32:59.914Z,18.37
2018-08-22T01:33:59.954Z,18.29
2018-08-22T01:34:59.993Z,18.29
2018-08-22T01:36:00.035Z,18.29
2018-08-22T01:37:00.073Z,18.30
2018-08-22T01:38:00.113Z,18.41
2018-08-22T01:39:00.154Z,18.30
2018-08-22T01:40:00.194Z,18.30
2018-08-22T01:41:00.233Z,18.33
2018-08-22T01:42:00.273Z,18.32
2018-08-22T01:43:00.330Z,18.30
2018-08-22T01:44:00.353Z,18.30
2018-08-22T01:45:00.395Z,18.32
2018-08-22T01:46:00.432Z,18.33
2018-08-22T01:47:00.475Z,18.36
2018-08-22T01:48:00.514Z,18.33
2018-08-22T01:49:00.554Z,18.47
2018-08-22T01:50:00.593Z,18.36
2018-08-22T01:51:00.634Z,18.36
2018-08-22T01:52:00.672Z,18.37
2018-08-22T01:53:00.715Z,18.36
2018-08-22T01:54:00.757Z,18.37
2018-08-22T01:55:00.793Z,18.39
2018-08-22T01:56:00.834Z,18.44
2018-08-22T01:57:00.871Z,18.41
2018-08-22T01:58:00.912Z,18.41
2018-08-22T01:59:00.952Z,18.52
2018-08-22T02:00:00.991Z,18.57
2018-08-22T02:01:01.031Z,18.41
2018-08-22T02:02:01.071Z,18.41
2018-08-22T02:03:01.110Z,18.42
2018-08-22T02:04:01.150Z,18.52
2018-08-22T02:05:01.189Z,18.42
2018-08-22T02:06:01.238Z,18.45
2018-08-22T02:07:01.270Z,18.42
2018-08-22T02:08:01.311Z,18.48
2018-08-22T02:09:01.349Z,18.48
2018-08-22T02:10:01.401Z,18.47
2018-08-22T02:11:01.429Z,18.42
2018-08-22T02:12:01.478Z,18.45
2018-08-22T02:13:01.507Z,18.52
2018-08-22T02:14:01.547Z,18.45
2018-08-22T02:15:01.590Z,18.42
2018-08-22T02:16:01.628Z,18.42
2018-08-22T02:17:01.667Z,18.47
2018-08-22T02:18:01.708Z,18.42
2018-08-22T02:19:01.746Z,18.50
2018-08-22T02:20:01.790Z,18.45
2018-08-22T02:21:01.832Z,18.45
2018-08-22T02:22:01.866Z,18.39
2018-08-22T02:23:01.906Z,18.54
2018-08-22T02:24:01.946Z,18.44
2018-08-22T02:25:01.996Z,18.45
2018-08-22T02:26:02.031Z,18.41
2018-08-22T02:27:02.064Z,18.47
2018-08-22T02:28:02.116Z,18.48
2018-08-22T02:29:02.145Z,18.47
2018-08-22T02:30:02.186Z,18.52
2018-08-22T02:31:02.224Z,18.52
2018-08-22T02:32:02.264Z,18.52
2018-08-22T02:33:02.303Z,18.54
2018-08-22T02:34:02.343Z,18.55
2018-08-22T02:35:02.383Z,18.55
2018-08-22T02:36:02.426Z,18.54
2018-08-22T02:37:02.464Z,18.57
2018-08-22T02:38:02.503Z,18.60
2018-08-22T02:39:02.543Z,18.54
2018-08-22T02:40:02.584Z,18.62
2018-08-22T02:41:02.626Z,18.57
2018-08-22T02:42:02.665Z,18.63
2018-08-22T02:43:02.702Z,18.55
2018-08-22T02:44:02.742Z,18.58
2018-08-22T02:45:02.783Z,18.58
2018-08-22T02:46:02.822Z,18.65
2018-08-22T02:47:02.871Z,18.58
2018-08-22T02:48:02.903Z,18.60
2018-08-22T02:49:02.942Z,18.69
2018-08-22T02:50:02.982Z,18.67
2018-08-22T02:51:03.022Z,18.72
2018-08-22T02:52:03.062Z,18.60
2018-08-22T02:53:03.107Z,18.67
2018-08-22T02:54:03.143Z,18.70
2018-08-22T02:55:03.188Z,18.69
2018-08-22T02:56:03.223Z,18.76
2018-08-22T02:57:03.264Z,18.73
2018-08-22T02:58:03.301Z,18.73
2018-08-22T02:59:03.342Z,18.85
2018-08-22T03:00:03.381Z,18.84
2018-08-22T03:01:03.419Z,18.87
2018-08-22T03:02:03.460Z,18.84
2018-08-22T03:03:03.502Z,18.80
2018-08-22T03:04:03.541Z,18.80
2018-08-22T03:05:03.589Z,18.81
2018-08-22T03:06:03.620Z,18.81
2018-08-22T03:07:03.660Z,18.78
2018-08-22T03:08:03.703Z,18.78
2018-08-22T03:09:03.739Z,18.76
2018-08-22T03:10:03.781Z,18.67
2018-08-22T03:11:03.821Z,18.76
2018-08-22T03:12:03.861Z,18.72
2018-08-22T03:13:03.903Z,18.70
2018-08-22T03:14:03.940Z,18.73
2018-08-22T03:15:03.981Z,18.76
2018-08-22T03:16:04.020Z,18.66
2018-08-22T03:17:04.067Z,18.65
2018-08-22T03:18:04.100Z,18.67
2018-08-22T03:19:04.140Z,18.76
2018-08-22T03:20:04.178Z,18.69
2018-08-22T03:21:04.232Z,18.69
2018-08-22T03:22:04.263Z,18.73
2018-08-22T03:23:04.299Z,18.73
2018-08-22T03:24:04.338Z,18.73
2018-08-22T03:25:04.378Z,18.72
2018-08-22T03:26:04.424Z,18.65
2018-08-22T03:27:04.458Z,18.67
2018-08-22T03:28:04.499Z,18.70
2018-08-22T03:29:04.536Z,18.75
2018-08-22T03:30:04.582Z,18.69
2018-08-22T03:31:04.617Z,18.69
2018-08-22T03:32:04.661Z,18.66
2018-08-22T03:33:04.695Z,18.72
2018-08-22T03:34:04.736Z,18.72
2018-08-22T03:35:04.780Z,18.73
2018-08-22T03:36:04.817Z,18.67
2018-08-22T03:37:04.856Z,18.76
2018-08-22T03:38:04.906Z,18.69
2018-08-22T03:39:04.935Z,18.75
2018-08-22T03:40:04.977Z,18.76
2018-08-22T03:41:05.016Z,18.76
2018-08-22T03:42:05.056Z,18.67
2018-08-22T03:43:05.094Z,18.73
2018-08-22T03:44:05.136Z,18.78
2018-08-22T03:45:05.184Z,18.78
2018-08-22T03:46:05.215Z,18.72
2018-08-22T03:47:05.261Z,18.72
2018-08-22T03:48:05.295Z,18.69
2018-08-22T03:49:05.343Z,18.63
2018-08-22T03:50:05.375Z,18.75
2018-08-22T03:51:05.415Z,18.72
2018-08-22T03:52:05.456Z,18.76
2018-08-22T03:53:05.494Z,18.72
2018-08-22T03:54:05.536Z,18.63
2018-08-22T03:55:05.577Z,18.67
2018-08-22T03:56:05.622Z,18.73
2018-08-22T03:57:05.654Z,18.75
2018-08-22T03:58:05.694Z,18.76
2018-08-22T03:59:05.736Z,18.76
2018-08-22T04:00:05.773Z,18.67
2018-08-22T04:01:05.811Z,18.73
2018-08-22T04:02:05.855Z,18.75
2018-08-22T04:03:05.893Z,18.76
2018-08-22T04:04:05.932Z,18.75
2018-08-22T04:05:05.977Z,18.80
2018-08-22T04:06:06.014Z,18.78
2018-08-22T04:07:06.059Z,18.75
2018-08-22T04:08:06.093Z,18.70
2018-08-22T04:09:06.182Z,18.70
2018-08-22T04:10:06.173Z,18.82
2018-08-22T04:11:06.215Z,18.76
2018-08-22T04:12:06.252Z,18.80
2018-08-22T04:13:06.293Z,18.81
2018-08-22T04:14:06.331Z,18.78
2018-08-22T04:15:06.372Z,18.81
2018-08-22T04:16:06.413Z,18.82
2018-08-22T04:17:06.451Z,18.81
2018-08-22T04:18:06.490Z,18.80
2018-08-22T04:19:06.543Z,18.88
2018-08-22T04:20:06.579Z,18.81
2018-08-22T04:21:06.611Z,18.88
2018-08-22T04:22:06.650Z,18.87
2018-08-22T04:23:06.691Z,18.82
2018-08-22T04:24:06.736Z,18.94
2018-08-22T04:25:06.771Z,18.87
2018-08-22T04:26:06.810Z,18.88
2018-08-22T04:27:06.851Z,18.90
2018-08-22T04:28:06.895Z,18.91
2018-08-22T04:29:06.931Z,18.78
2018-08-22T04:30:06.973Z,18.94
2018-08-22T04:31:07.014Z,18.98
2018-08-22T04:32:07.056Z,18.95
2018-08-22T04:33:07.090Z,18.92
2018-08-22T04:34:07.136Z,18.92
2018-08-22T04:35:07.172Z,18.92
2018-08-22T04:36:07.209Z,18.92
2018-08-22T04:37:07.259Z,19.00
2018-08-22T04:38:07.291Z,18.94
2018-08-22T04:39:07.330Z,18.90
2018-08-22T04:40:07.378Z,18.91
2018-08-22T04:41:07.409Z,18.91
2018-08-22T04:42:07.449Z,18.95
2018-08-22T04:43:07.490Z,18.91
2018-08-22T04:44:07.529Z,18.90
2018-08-22T04:45:07.569Z,18.95
2018-08-22T04:46:07.611Z,18.91
2018-08-22T04:47:07.649Z,18.92
2018-08-22T04:48:07.693Z,18.92
2018-08-22T04:49:07.730Z,18.98
2018-08-22T04:50:07.784Z,18.94
2018-08-22T04:51:07.808Z,18.92
2018-08-22T04:52:07.850Z,18.98
2018-08-22T04:53:07.892Z,18.94
2018-08-22T04:54:07.929Z,18.98
2018-08-22T04:55:07.970Z,18.94
2018-08-22T04:56:08.008Z,19.06
2018-08-22T04:57:08.050Z,19.11
2018-08-22T04:58:08.090Z,19.08
2018-08-22T04:59:08.129Z,19.10
2018-08-22T05:00:08.169Z,19.10
2018-08-22T05:01:08.210Z,19.21
2018-08-22T05:02:08.248Z,19.13
2018-08-22T05:03:08.289Z,19.19
2018-08-22T05:04:08.329Z,19.16
2018-08-22T05:05:08.369Z,19.21
2018-08-22T05:06:08.426Z,19.18
2018-08-22T05:07:08.450Z,19.13
2018-08-22T05:08:08.490Z,19.25
2018-08-22T05:09:08.530Z,19.23
2018-08-22T05:10:08.571Z,19.37
2018-08-22T05:11:08.621Z,19.39
2018-08-22T05:12:08.653Z,19.39
2018-08-22T05:13:08.692Z,19.43
2018-08-22T05:14:08.731Z,19.44
2018-08-22T05:15:08.772Z,19.50
2018-08-22T05:16:08.812Z,19.48
2018-08-22T05:17:08.852Z,19.47
2018-08-22T05:18:08.890Z,19.54
2018-08-22T05:19:08.936Z,19.54
2018-08-22T05:20:08.971Z,19.51
2018-08-22T05:21:09.017Z,19.65
2018-08-22T05:22:09.054Z,19.71
2018-08-22T05:23:09.093Z,19.65
2018-08-22T05:24:09.135Z,19.73
2018-08-22T05:25:09.174Z,19.76
2018-08-22T05:26:09.215Z,19.78
2018-08-22T05:27:09.256Z,19.78
2018-08-22T05:28:09.297Z,19.83
2018-08-22T05:29:09.335Z,19.78
2018-08-22T05:30:09.434Z,19.81
2018-08-22T05:31:09.416Z,19.87
2018-08-22T05:32:09.457Z,19.86
2018-08-22T05:33:09.498Z,19.96
2018-08-22T05:34:09.539Z,20.02
2018-08-22T05:35:09.578Z,19.99
2018-08-22T05:36:09.618Z,20.05
2018-08-22T05:37:09.663Z,20.03
2018-08-22T05:38:09.706Z,20.05
2018-08-22T05:39:09.739Z,20.16
2018-08-22T05:40:09.780Z,20.11
2018-08-22T05:41:09.821Z,20.14
2018-08-22T05:42:09.860Z,20.11
2018-08-22T05:43:09.902Z,20.11
2018-08-22T05:44:09.942Z,20.24
2018-08-22T05:45:09.983Z,20.23
2018-08-22T05:46:10.025Z,20.31
2018-08-22T05:47:10.064Z,20.32
2018-08-22T05:48:10.113Z,20.29
2018-08-22T05:49:10.208Z,20.31
2018-08-22T05:50:10.186Z,20.29
2018-08-22T05:51:10.226Z,20.21
2018-08-22T05:52:10.270Z,20.16
2018-08-22T05:53:10.307Z,20.29
2018-08-22T05:54:10.346Z,20.26
2018-08-22T05:55:10.388Z,20.28
2018-08-22T05:56:10.428Z,20.24
2018-08-22T05:57:10.468Z,20.23
2018-08-22T05:58:10.510Z,20.29
2018-08-22T05:59:10.558Z,20.20
2018-08-22T06:00:10.591Z,20.24
2018-08-22T06:01:10.636Z,20.28
2018-08-22T06:02:10.674Z,20.26
2018-08-22T06:03:10.760Z,20.28
2018-08-22T06:04:10.755Z,20.32
2018-08-22T06:05:10.793Z,20.33
2018-08-22T06:06:10.834Z,20.36
2018-08-22T06:07:10.877Z,20.36
2018-08-22T06:08:10.916Z,20.28
2018-08-22T06:09:11.060Z,20.35
2018-08-22T06:10:10.997Z,20.36
2018-08-22T06:11:11.045Z,20.35
2018-08-22T06:12:11.079Z,20.36
2018-08-22T06:13:11.118Z,20.35
2018-08-22T06:14:11.160Z,20.47
2018-08-22T06:15:11.201Z,20.42
2018-08-22T06:16:11.242Z,20.43
2018-08-22T06:17:11.282Z,20.52
2018-08-22T06:18:11.324Z,20.57
2018-08-22T06:19:11.368Z,20.54
2018-08-22T06:20:11.406Z,20.51
2018-08-22T06:21:11.447Z,20.61
2018-08-22T06:22:11.486Z,20.58
2018-08-22T06:23:11.532Z,20.57
2018-08-22T06:24:11.581Z,20.54
2018-08-22T06:25:11.609Z,20.66
2018-08-22T06:26:11.649Z,20.69
2018-08-22T06:27:11.690Z,20.67
2018-08-22T06:28:11.732Z,20.66
2018-08-22T06:29:11.773Z,20.66
2018-08-22T06:30:11.814Z,20.67
2018-08-22T06:31:11.853Z,20.79
2018-08-22T06:32:11.903Z,20.72
2018-08-22T06:33:11.935Z,20.87
2018-08-22T06:34:11.975Z,20.92
2018-08-22T06:35:12.015Z,20.88
2018-08-22T06:36:12.121Z,20.87
2018-08-22T06:37:12.099Z,20.80
2018-08-22T06:38:12.149Z,20.94
2018-08-22T06:39:12.178Z,21.01
2018-08-22T06:40:12.220Z,21.01
2018-08-22T06:41:12.262Z,21.03
2018-08-22T06:42:12.303Z,21.07
2018-08-22T06:43:12.343Z,21.14
2018-08-22T06:44:12.409Z,21.13
2018-08-22T06:45:12.425Z,21.14
2018-08-22T06:46:12.466Z,21.22
2018-08-22T06:47:12.506Z,21.25
2018-08-22T06:48:12.547Z,21.24
2018-08-22T06:49:12.589Z,21.24
2018-08-22T06:50:12.692Z,21.38
2018-08-22T06:51:12.679Z,21.44
2018-08-22T06:52:12.712Z,21.38
2018-08-22T06:53:12.752Z,21.38
2018-08-22T06:54:12.793Z,21.44
2018-08-22T06:55:12.835Z,21.56
2018-08-22T06:56:12.877Z,21.50
2018-08-22T06:57:12.933Z,21.56
2018-08-22T06:58:12.959Z,21.56
2018-08-22T06:59:12.999Z,21.56
2018-08-22T07:00:13.041Z,21.61
2018-08-22T07:01:13.081Z,21.67
2018-08-22T07:02:13.129Z,21.65
2018-08-22T07:03:13.168Z,21.69
2018-08-22T07:04:13.204Z,21.69
2018-08-22T07:05:13.246Z,21.84
2018-08-22T07:06:13.286Z,21.88
2018-08-22T07:07:13.328Z,21.91
2018-08-22T07:08:13.499Z,21.92
2018-08-22T07:09:13.408Z,21.99
2018-08-22T07:10:13.454Z,21.92
2018-08-22T07:11:13.492Z,22.00
2018-08-22T07:12:13.585Z,22.09
2018-08-22T07:13:13.573Z,22.06
2018-08-22T07:14:13.616Z,22.05
2018-08-22T07:15:13.660Z,22.15
2018-08-22T07:16:13.698Z,22.20
2018-08-22T07:17:13.738Z,22.31
2018-08-22T07:18:13.784Z,22.21
2018-08-22T07:19:13.824Z,22.37
2018-08-22T07:20:13.864Z,22.40
2018-08-22T07:21:13.906Z,22.39
2018-08-22T07:22:13.954Z,22.47
2018-08-22T07:23:13.989Z,22.52
2018-08-22T07:24:14.031Z,22.51
2018-08-22T07:25:14.069Z,22.55
2018-08-22T07:26:14.117Z,22.58
2018-08-22T07:27:14.154Z,22.75
2018-08-22T07:28:14.201Z,22.73
2018-08-22T07:29:14.235Z,22.68
2018-08-22T07:30:14.452Z,22.83
2018-08-22T07:31:14.320Z,22.76
2018-08-22T07:32:14.363Z,22.88
2018-08-22T07:33:14.403Z,22.98
2018-08-22T07:34:14.448Z,22.94
2018-08-22T07:35:14.484Z,23.10
2018-08-22T07:36:14.535Z,23.13
2018-08-22T07:37:14.572Z,23.19
2018-08-22T07:38:14.610Z,23.31
2018-08-22T07:39:14.669Z,23.38
2018-08-22T07:40:14.697Z,23.57
2018-08-22T07:41:14.820Z,23.68
2018-08-22T07:42:14.778Z,23.87
2018-08-22T07:43:14.820Z,23.98
2018-08-22T07:44:14.861Z,24.16
2018-08-22T07:45:14.902Z,24.25
2018-08-22T07:46:14.948Z,24.32
2018-08-22T07:47:15.050Z,24.47
2018-08-22T07:48:15.028Z,24.55
2018-08-22T07:49:15.071Z,24.52
2018-08-22T07:50:15.174Z,24.62
2018-08-22T07:51:15.154Z,24.73
2018-08-22T07:52:15.201Z,24.87
2018-08-22T07:53:15.258Z,24.84
2018-08-22T07:54:15.283Z,24.99
2018-08-22T07:55:15.326Z,25.15
2018-08-22T07:56:15.387Z,25.15
2018-08-22T07:57:15.412Z,25.20
2018-08-22T07:58:15.451Z,25.25
2018-08-22T07:59:15.547Z,25.27
2018-08-22T08:00:15.624Z,25.20
2018-08-22T08:01:15.578Z,25.14
2018-08-22T08:02:15.623Z,25.00
2018-08-22T08:03:15.668Z,25.08
2018-08-22T08:04:15.711Z,25.02
2018-08-22T08:05:15.786Z,25.02
2018-08-22T08:06:15.793Z,24.95
2018-08-22T08:07:15.836Z,24.93
2018-08-22T08:08:15.881Z,24.99
2018-08-22T08:09:15.921Z,25.14
2018-08-22T08:10:15.971Z,25.05
2018-08-22T08:11:16.015Z,25.05
2018-08-22T08:12:16.050Z,25.10
2018-08-22T08:13:16.093Z,25.14
2018-08-22T08:14:16.137Z,25.09
2018-08-22T08:15:16.179Z,25.13
2018-08-22T08:16:16.230Z,25.21
2018-08-22T08:17:16.307Z,25.17
2018-08-22T08:18:16.315Z,25.05
2018-08-22T08:19:16.349Z,25.17
2018-08-22T08:20:16.400Z,25.18
2018-08-22T08:21:16.438Z,25.06
2018-08-22T08:22:16.479Z,25.14
2018-08-22T08:23:16.521Z,25.14
2018-08-22T08:24:16.565Z,24.98
2018-08-22T08:25:16.607Z,25.08
2018-08-22T08:26:16.694Z,25.06
2018-08-22T08:27:16.694Z,25.21
2018-08-22T08:28:16.737Z,25.20
2018-08-22T08:29:16.777Z,25.24
2018-08-22T08:30:16.820Z,25.24
2018-08-22T08:31:16.862Z,25.28
2018-08-22T08:32:16.907Z,25.30
2018-08-22T08:33:16.949Z,25.23
2018-08-22T08:34:16.993Z,25.35
2018-08-22T08:35:17.034Z,25.36
2018-08-22T08:36:17.077Z,25.33
2018-08-22T08:37:17.119Z,25.43
2018-08-22T08:38:17.161Z,25.39
2018-08-22T08:39:17.206Z,25.45
2018-08-22T08:40:17.249Z,25.45
2018-08-22T08:41:17.333Z,25.54
2018-08-22T08:42:17.333Z,25.54
2018-08-22T08:43:17.410Z,25.60
2018-08-22T08:44:17.426Z,25.57
2018-08-22T08:45:17.462Z,25.60
2018-08-22T08:46:17.505Z,25.51
2018-08-22T08:47:17.558Z,25.61
2018-08-22T08:48:17.592Z,25.61
2018-08-22T08:49:17.668Z,25.69
2018-08-22T08:50:17.686Z,25.64
2018-08-22T08:51:17.720Z,25.75
2018-08-22T08:52:17.765Z,25.82
2018-08-22T08:53:17.805Z,25.77
2018-08-22T08:54:17.856Z,25.92
2018-08-22T08:55:17.897Z,25.92
2018-08-22T08:56:17.935Z,25.90
2018-08-22T08:57:18.026Z,25.87
2018-08-22T08:58:18.021Z,26.01
2018-08-22T08:59:18.067Z,25.94
2018-08-22T09:00:18.106Z,25.94
2018-08-22T09:01:18.171Z,25.99
2018-08-22T09:02:18.214Z,25.91
2018-08-22T09:03:18.234Z,25.99
2018-08-22T09:04:18.310Z,25.98
2018-08-22T09:05:18.321Z,26.07
2018-08-22T09:06:18.365Z,26.12
2018-08-22T09:07:18.409Z,26.02
2018-08-22T09:08:18.450Z,26.07
2018-08-22T09:09:18.593Z,26.13
2018-08-22T09:10:18.536Z,26.21
2018-08-22T09:11:18.580Z,26.28
2018-08-22T09:12:18.731Z,26.43
2018-08-22T09:13:18.666Z,26.40
2018-08-22T09:14:18.719Z,26.44
2018-08-22T09:15:18.753Z,26.40
2018-08-22T09:16:18.794Z,26.50
2018-08-22T09:17:18.886Z,26.48
2018-08-22T09:18:18.880Z,26.51
2018-08-22T09:19:18.925Z,26.50
2018-08-22T09:20:18.969Z,26.52
2018-08-22T09:21:19.049Z,26.47
2018-08-22T09:22:19.052Z,26.51
2018-08-22T09:23:19.097Z,26.62
2018-08-22T09:24:19.152Z,26.60
2018-08-22T09:25:19.187Z,26.52
2018-08-22T09:26:19.225Z,26.62
2018-08-22T09:27:19.269Z,26.66
2018-08-22T09:28:19.312Z,26.62
2018-08-22T09:29:19.355Z,26.63
2018-08-22T09:30:19.398Z,26.80
2018-08-22T09:31:19.443Z,26.80
2018-08-22T09:32:19.485Z,26.87
2018-08-22T09:33:19.537Z,26.88
2018-08-22T09:34:19.572Z,26.87
2018-08-22T09:35:19.615Z,26.84
2018-08-22T09:36:19.657Z,26.84
2018-08-22T09:37:19.702Z,26.89
2018-08-22T09:38:19.746Z,26.80
2018-08-22T09:39:19.825Z,26.94
2018-08-22T09:40:19.852Z,26.81
2018-08-22T09:41:19.875Z,26.89
2018-08-22T09:42:19.919Z,26.89
2018-08-22T09:43:20.138Z,26.95
2018-08-22T09:44:20.022Z,26.89
2018-08-22T09:45:20.048Z,26.94
2018-08-22T09:46:20.091Z,27.09
2018-08-22T09:47:20.137Z,27.07
2018-08-22T09:48:20.178Z,27.09
2018-08-22T09:49:20.229Z,27.22
2018-08-22T09:50:20.266Z,27.29
2018-08-22T09:51:20.308Z,27.28
2018-08-22T09:52:20.352Z,27.32
2018-08-22T09:53:20.394Z,27.37
2018-08-22T09:54:20.446Z,27.44
2018-08-22T09:55:20.483Z,27.29
2018-08-22T09:56:20.526Z,27.31
2018-08-22T09:57:20.569Z,27.37
2018-08-22T09:58:20.691Z,27.46
2018-08-22T09:59:20.656Z,27.57
2018-08-22T10:00:20.703Z,27.46
2018-08-22T10:01:20.745Z,27.43
2018-08-22T10:02:20.787Z,27.40
2018-08-22T10:03:20.831Z,27.37
2018-08-22T10:04:20.875Z,27.34
2018-08-22T10:05:20.919Z,27.40
2018-08-22T10:06:21.071Z,27.49
2018-08-22T10:07:21.034Z,27.43
2018-08-22T10:08:21.051Z,27.49
2018-08-22T10:09:21.103Z,27.50
2018-08-22T10:10:21.152Z,27.60
2018-08-22T10:11:21.182Z,27.60
2018-08-22T10:12:21.225Z,27.60
2018-08-22T10:13:21.267Z,27.67
2018-08-22T10:14:21.311Z,27.67
2018-08-22T10:15:21.356Z,27.74
2018-08-22T10:16:21.406Z,27.72
2018-08-22T10:17:21.506Z,27.82
2018-08-22T10:18:21.490Z,27.92
2018-08-22T10:19:21.529Z,27.90
2018-08-22T10:20:21.574Z,27.94
2018-08-22T10:21:21.616Z,27.96
2018-08-22T10:22:21.659Z,27.90
2018-08-22T10:23:21.704Z,28.02
2018-08-22T10:24:21.754Z,27.99
2018-08-22T10:25:21.793Z,28.07
2018-08-22T10:26:21.834Z,28.04
2018-08-22T10:27:21.878Z,28.07
2018-08-22T10:28:21.923Z,28.15
2018-08-22T10:29:21.967Z,28.03
2018-08-22T10:30:22.011Z,28.12
2018-08-22T10:31:22.054Z,28.11
2018-08-22T10:32:22.097Z,28.18
2018-08-22T10:33:22.152Z,28.19
2018-08-22T10:34:22.190Z,28.19
2018-08-22T10:35:22.232Z,28.29
2018-08-22T10:36:22.273Z,28.25
2018-08-22T10:37:22.319Z,28.24
2018-08-22T10:38:22.362Z,28.25
2018-08-22T10:39:22.424Z,28.22
2018-08-22T10:40:22.451Z,28.30
2018-08-22T10:41:22.503Z,28.31
2018-08-22T10:42:22.539Z,28.34
2018-08-22T10:43:22.581Z,28.33
2018-08-22T10:44:22.666Z,28.46
2018-08-22T10:45:22.667Z,28.52
2018-08-22T10:46:22.713Z,28.48
2018-08-22T10:47:22.757Z,28.46
2018-08-22T10:48:22.829Z,28.56
2018-08-22T10:49:22.845Z,28.51
2018-08-22T10:50:22.888Z,28.39
2018-08-22T10:51:22.934Z,28.40
2018-08-22T10:52:22.979Z,28.46
2018-08-22T10:53:23.022Z,28.36
2018-08-22T10:54:23.065Z,28.37
2018-08-22T10:55:23.116Z,28.34
2018-08-22T10:56:23.155Z,28.36
2018-08-22T10:57:23.200Z,28.46
2018-08-22T10:58:23.242Z,28.51
2018-08-22T10:59:23.287Z,28.58
2018-08-22T11:00:23.330Z,28.56
2018-08-22T11:01:23.373Z,28.66
2018-08-22T11:02:23.418Z,28.74
2018-08-22T11:03:23.463Z,28.76
2018-08-22T11:04:23.510Z,28.64
2018-08-22T11:05:23.555Z,28.67
2018-08-22T11:06:23.606Z,28.66
2018-08-22T11:07:23.639Z,28.74
2018-08-22T11:08:23.682Z,28.76
2018-08-22T11:09:23.735Z,28.81
2018-08-22T11:10:23.770Z,29.00
2018-08-22T11:11:23.821Z,28.89
2018-08-22T11:12:23.858Z,29.04
2018-08-22T11:13:23.900Z,29.16
2018-08-22T11:14:23.945Z,29.11
2018-08-22T11:15:23.995Z,29.26
2018-08-22T11:16:24.048Z,29.33
2018-08-22T11:17:24.078Z,29.31
2018-08-22T11:18:24.122Z,29.42
2018-08-22T11:19:24.182Z,29.45
2018-08-22T11:20:24.211Z,29.53
2018-08-22T11:21:24.254Z,29.64
2018-08-22T11:22:24.358Z,29.63
2018-08-22T11:23:24.346Z,29.67
2018-08-22T11:24:24.389Z,29.63
2018-08-22T11:25:24.433Z,29.70
2018-08-22T11:26:24.477Z,29.78
2018-08-22T11:27:24.523Z,29.78
2018-08-22T11:28:24.568Z,29.79
2018-08-22T11:29:24.618Z,29.82
2018-08-22T11:30:24.656Z,29.85
2018-08-22T11:31:24.708Z,29.85
2018-08-22T11:32:24.744Z,29.86
2018-08-22T11:33:24.789Z,29.79
2018-08-22T11:34:24.895Z,29.87
2018-08-22T11:35:24.891Z,29.89
2018-08-22T11:36:24.924Z,29.85
2018-08-22T11:37:24.970Z,29.97
2018-08-22T11:38:25.014Z,30.05
2018-08-22T11:39:25.067Z,30.07
2018-08-22T11:40:25.103Z,30.16
2018-08-22T11:41:25.149Z,30.32
2018-08-22T11:42:25.202Z,30.46
2018-08-22T11:43:25.241Z,30.61
2018-08-22T11:44:25.300Z,30.73
2018-08-22T11:45:25.328Z,30.80
2018-08-22T11:46:25.372Z,30.99
2018-08-22T11:47:25.420Z,31.06
2018-08-22T11:48:25.463Z,31.23
2018-08-22T11:49:25.508Z,31.41
2018-08-22T11:50:25.555Z,31.53
2018-08-22T11:51:25.603Z,31.73
2018-08-22T11:52:25.644Z,31.70
2018-08-22T11:53:25.696Z,31.81
2018-08-22T11:54:25.775Z,32.06
2018-08-22T11:55:25.783Z,32.28
2018-08-22T11:56:25.826Z,32.35
2018-08-22T11:57:25.874Z,32.57
2018-08-22T11:58:25.919Z,32.62
2018-08-22T11:59:25.973Z,32.63
2018-08-22T12:00:26.012Z,32.74
2018-08-22T12:01:26.055Z,32.70
2018-08-22T12:02:26.102Z,32.75
2018-08-22T12:03:26.152Z,32.84
2018-08-22T12:04:26.196Z,32.75
2018-08-22T12:05:26.239Z,32.78
2018-08-22T12:06:26.295Z,32.82
2018-08-22T12:07:26.343Z,32.96
2018-08-22T12:08:26.380Z,32.93
2018-08-22T12:09:26.425Z,32.82
2018-08-22T12:10:26.508Z,32.82
2018-08-22T12:11:26.522Z,32.84
2018-08-22T12:12:26.570Z,32.75
2018-08-22T12:13:26.610Z,32.69
2018-08-22T12:14:26.662Z,32.67
2018-08-22T12:15:26.733Z,32.65
2018-08-22T12:16:26.753Z,32.56
2018-08-22T12:17:26.800Z,32.43
2018-08-22T12:18:26.845Z,32.41
2018-08-22T12:19:26.891Z,32.48
2018-08-22T12:20:26.939Z,32.50
2018-08-22T12:21:26.985Z,32.41
2018-08-22T12:22:27.032Z,32.48
2018-08-22T12:23:27.122Z,32.44
2018-08-22T12:24:27.125Z,32.35
2018-08-22T12:25:27.186Z,32.47
2018-08-22T12:26:27.217Z,32.56
2018-08-22T12:27:27.264Z,32.40
2018-08-22T12:28:27.310Z,32.55
2018-08-22T12:29:27.369Z,32.43
2018-08-22T12:30:27.404Z,32.48
2018-08-22T12:31:27.450Z,32.52
2018-08-22T12:32:27.506Z,32.44
2018-08-22T12:33:27.568Z,32.45
2018-08-22T12:34:27.590Z,32.40
2018-08-22T12:35:27.637Z,32.44
2018-08-22T12:36:27.685Z,32.51
2018-08-22T12:37:27.733Z,32.52
2018-08-22T12:38:27.778Z,32.72
2018-08-22T12:39:27.826Z,32.89
2018-08-22T12:40:27.871Z,33.11
2018-08-22T12:41:27.920Z,33.14
2018-08-22T12:42:27.973Z,33.22
2018-08-22T12:43:28.012Z,33.22
2018-08-22T12:44:28.100Z,33.15
2018-08-22T12:45:28.105Z,33.03
2018-08-22T12:46:28.153Z,32.85
2018-08-22T12:47:28.208Z,32.67
2018-08-22T12:48:28.250Z,32.52
2018-08-22T12:49:28.293Z,32.60
2018-08-22T12:50:28.384Z,32.35
2018-08-22T12:51:28.388Z,32.29
2018-08-22T12:52:28.435Z,32.37
2018-08-22T12:53:28.489Z,32.33